createdAt,value
2018-05-26T00:00:59.867Z,83.40
2018-05-26T00:03:33.977Z,83.80
2018-05-26T00:06:08.770Z,84.50
2018-05-26T00:08:42.445Z,84.30
2018-05-26T00:11:16.424Z,84.20
2018-05-26T00:13:50.254Z,84.10
2018-05-26T00:16:24.093Z,84.20
2018-05-26T00:18:58.774Z,84.70
2018-05-26T00:21:32.525Z,84.80
2018-05-26T00:24:07.252Z,84.70
2018-05-26T00:26:41.077Z,84.70
2018-05-26T00:29:14.833Z,84.60
2018-05-26T00:31:48.649Z,84.80
2018-05-26T00:34:22.601Z,84.80
2018-05-26T00:36:56.661Z,84.90
2018-05-26T00:39:32.054Z,84.40
2018-05-26T00:42:07.161Z,83.50
2018-05-26T00:44:42.330Z,83.00
2018-05-26T00:47:19.003Z,83.10
2018-05-26T00:49:54.517Z,83.00
2018-05-26T00:52:28.529Z,83.10
2018-05-26T00:55:03.291Z,83.10
2018-05-26T00:57:37.459Z,82.80
2018-05-26T01:00:11.619Z,83.00
2018-05-26T01:02:45.940Z,83.00
2018-05-26T01:05:24.042Z,83.20
2018-05-26T01:07:58.320Z,83.10
2018-05-26T01:10:33.913Z,83.20
2018-05-26T01:13:08.130Z,83.40
2018-05-26T01:15:42.644Z,83.30
2018-05-26T01:18:17.034Z,83.40
2018-05-26T01:20:51.278Z,83.30
2018-05-26T01:23:25.705Z,83.20
2018-05-26T01:28:40.280Z,83.50
2018-05-26T01:31:14.701Z,83.00
2018-05-26T01:33:48.818Z,83.00
2018-05-26T01:36:24.160Z,83.10
2018-05-26T01:38:59.224Z,83.40
2018-05-26T01:41:33.982Z,83.30
2018-05-26T01:44:08.341Z,83.30
2018-05-26T01:46:43.034Z,83.30
2018-05-26T01:49:17.797Z,83.30
2018-05-26T01:51:52.217Z,83.40
2018-05-26T01:54:26.334Z,83.30
2018-05-26T01:57:01.236Z,83.50
2018-05-26T01:59:36.298Z,83.40
2018-05-26T02:02:10.270Z,83.60
2018-05-26T02:04:44.526Z,83.70
2018-05-26T02:07:19.560Z,83.80
2018-05-26T02:09:53.571Z,83.80
2018-05-26T02:12:27.420Z,83.90
2018-05-26T02:15:01.611Z,84.00
2018-05-26T02:17:36.629Z,84.00
2018-05-26T02:20:10.918Z,84.00
2018-05-26T02:22:44.958Z,83.80
2018-05-26T02:25:19.694Z,84.00
2018-05-26T02:27:53.941Z,83.90
2018-05-26T02:30:29.040Z,84.60
2018-05-26T02:33:02.949Z,84.60
2018-05-26T02:35:36.961Z,85.00
2018-05-26T02:38:11.689Z,85.10
2018-05-26T02:40:45.544Z,85.10
2018-05-26T02:43:19.782Z,85.20
2018-05-26T02:45:53.822Z,85.30
2018-05-26T02:48:28.040Z,85.30
2018-05-26T02:51:02.973Z,84.30
2018-05-26T02:53:37.394Z,84.60
2018-05-26T02:56:12.632Z,84.60
2018-05-26T02:58:46.643Z,84.60
2018-05-26T03:01:21.371Z,84.40
2018-05-26T03:03:55.203Z,84.30
2018-05-26T03:06:34.845Z,84.30
2018-05-26T03:09:15.491Z,84.20
2018-05-26T03:11:55.497Z,84.20
2018-05-26T03:14:35.363Z,83.90
2018-05-26T03:17:12.574Z,83.40
2018-05-26T03:19:46.793Z,83.70
2018-05-26T03:22:21.723Z,83.90
2018-05-26T03:24:56.042Z,83.90
2018-05-26T03:27:30.258Z,84.10
2018-05-26T03:30:05.088Z,84.20
2018-05-26T03:32:39.282Z,83.80
2018-05-26T03:35:14.186Z,83.90
2018-05-26T03:37:48.655Z,84.20
2018-05-26T03:40:22.670Z,84.30
2018-05-26T03:42:57.185Z,84.50
2018-05-26T03:45:31.502Z,84.40
2018-05-26T03:48:06.710Z,84.50
2018-05-26T03:50:42.033Z,84.50
2018-05-26T03:53:17.236Z,84.50
2018-05-26T03:56:03.436Z,84.60
2018-05-26T03:58:49.521Z,84.30
2018-05-26T04:01:23.901Z,83.70
2018-05-26T04:03:58.337Z,84.10
2018-05-26T04:06:32.402Z,83.20
2018-05-26T04:09:06.540Z,83.30
2018-05-26T04:11:40.708Z,83.60
2018-05-26T04:14:14.916Z,83.60
2018-05-26T04:16:50.365Z,83.50
2018-05-26T04:19:24.751Z,83.50
2018-05-26T04:21:58.761Z,83.30
2018-05-26T04:24:33.633Z,82.60
2018-05-26T04:27:08.149Z,82.60
2018-05-26T04:29:43.246Z,82.20
2018-05-26T04:32:18.320Z,82.10
2018-05-26T04:34:52.493Z,81.90
2018-05-26T04:37:26.649Z,81.70
2018-05-26T04:40:01.177Z,81.70
2018-05-26T04:42:35.246Z,81.50
2018-05-26T04:45:09.299Z,80.60
2018-05-26T04:47:43.461Z,80.90
2018-05-26T04:50:19.306Z,80.30
2018-05-26T04:52:53.436Z,80.30
2018-05-26T04:55:27.539Z,80.20
2018-05-26T04:58:02.263Z,79.50
2018-05-26T05:00:37.505Z,79.50
2018-05-26T05:03:15.365Z,79.70
2018-05-26T05:06:15.625Z,79.20
2018-05-26T05:08:49.795Z,79.10
2018-05-26T05:11:25.020Z,78.30
2018-05-26T05:13:59.368Z,78.30
2018-05-26T05:16:33.682Z,78.50
2018-05-26T05:19:08.002Z,78.80
2018-05-26T05:21:42.216Z,78.60
2018-05-26T05:24:17.353Z,78.50
2018-05-26T05:26:52.495Z,78.80
2018-05-26T05:29:28.113Z,78.70
2018-05-26T05:32:02.046Z,78.50
2018-05-26T05:34:36.158Z,78.00
2018-05-26T05:37:10.483Z,77.90
2018-05-26T05:39:44.421Z,78.00
2018-05-26T05:42:19.277Z,78.50
2018-05-26T05:44:54.155Z,78.50
2018-05-26T05:47:28.217Z,77.70
2018-05-26T05:50:02.183Z,76.30
2018-05-26T05:52:36.117Z,75.70
2018-05-26T05:55:11.037Z,74.90
2018-05-26T05:57:44.932Z,74.90
2018-05-26T06:00:18.838Z,73.40
2018-05-26T06:02:52.793Z,73.70
2018-05-26T06:05:27.568Z,72.20
2018-05-26T06:08:01.740Z,72.20
2018-05-26T06:10:35.561Z,71.70
2018-05-26T06:13:09.403Z,71.90
2018-05-26T06:15:43.957Z,70.70
2018-05-26T06:18:17.886Z,70.70
2018-05-26T06:20:52.444Z,70.80
2018-05-26T06:23:26.316Z,70.80
2018-05-26T06:26:00.568Z,71.00
2018-05-26T06:28:34.697Z,70.10
2018-05-26T06:31:08.730Z,69.80
2018-05-26T06:33:42.569Z,69.00
2018-05-26T06:36:17.861Z,68.10
2018-05-26T06:38:51.942Z,68.00
2018-05-26T06:41:25.763Z,67.50
2018-05-26T06:43:59.588Z,67.30
2018-05-26T06:46:33.532Z,66.80
2018-05-26T06:49:08.413Z,66.40
2018-05-26T06:51:43.113Z,65.50
2018-05-26T06:54:17.127Z,65.40
2018-05-26T06:56:51.064Z,66.00
2018-05-26T06:59:24.973Z,65.00
2018-05-26T07:01:59.574Z,64.40
2018-05-26T07:04:34.198Z,63.50
2018-05-26T07:07:08.221Z,63.40
2018-05-26T07:09:42.146Z,64.40
2018-05-26T07:12:16.053Z,63.50
2018-05-26T07:14:49.909Z,62.80
2018-05-26T07:17:23.713Z,62.40
2018-05-26T07:19:57.582Z,61.00
2018-05-26T07:22:31.360Z,60.50
2018-05-26T07:25:06.222Z,60.40
2018-05-26T07:27:40.178Z,60.50
2018-05-26T07:30:14.112Z,60.30
2018-05-26T07:32:47.896Z,59.90
2018-05-26T07:35:21.686Z,59.90
2018-05-26T07:37:55.591Z,60.30
2018-05-26T07:40:29.569Z,59.10
2018-05-26T07:43:03.581Z,58.30
2018-05-26T07:45:37.378Z,57.80
2018-05-26T07:48:12.103Z,57.30
2018-05-26T07:50:46.918Z,57.20
2018-05-26T07:53:20.827Z,56.00
2018-05-26T07:55:54.703Z,56.00
2018-05-26T07:58:29.231Z,54.30
2018-05-26T08:01:03.120Z,54.30
2018-05-26T08:03:37.047Z,53.90
2018-05-26T08:06:12.242Z,53.40
2018-05-26T08:08:46.209Z,53.30
2018-05-26T08:11:20.815Z,51.60
2018-05-26T08:13:54.741Z,51.50
2018-05-26T08:16:28.575Z,50.70
2018-05-26T08:19:03.190Z,49.00
2018-05-26T08:21:36.986Z,48.90
2018-05-26T08:24:10.893Z,49.50
2018-05-26T08:26:45.516Z,48.00
2018-05-26T08:29:19.428Z,47.90
2018-05-26T08:31:53.365Z,47.90
2018-05-26T08:34:27.483Z,48.70
2018-05-26T08:37:01.353Z,48.50
2018-05-26T08:39:35.987Z,48.90
2018-05-26T08:42:09.797Z,48.90
2018-05-26T08:44:44.496Z,47.00
2018-05-26T08:47:18.397Z,47.00
2018-05-26T08:49:52.204Z,47.00
2018-05-26T08:52:26.037Z,46.90
2018-05-26T08:55:00.699Z,45.80
2018-05-26T08:57:34.428Z,45.80
2018-05-26T09:00:09.677Z,44.10
2018-05-26T09:02:43.477Z,44.00
2018-05-26T09:05:17.179Z,43.60
2018-05-26T09:07:51.012Z,43.50
2018-05-26T09:10:25.624Z,44.20
2018-05-26T09:12:59.326Z,44.20
2018-05-26T09:15:33.024Z,43.50
2018-05-26T09:18:07.758Z,43.00
2018-05-26T09:20:41.543Z,42.10
2018-05-26T09:23:15.367Z,41.60
2018-05-26T09:25:50.041Z,41.00
2018-05-26T09:28:23.837Z,41.00
2018-05-26T09:30:57.661Z,40.70
2018-05-26T09:33:31.514Z,40.00
2018-05-26T09:36:05.284Z,39.70
2018-05-26T09:38:39.168Z,39.20
2018-05-26T09:41:12.944Z,38.70
2018-05-26T09:43:46.724Z,38.90
2018-05-26T09:46:20.559Z,39.00
2018-05-26T09:48:54.373Z,37.70
2018-05-26T09:51:28.138Z,38.70
2018-05-26T09:54:01.993Z,40.30
2018-05-26T09:56:35.737Z,40.80
2018-05-26T09:59:09.537Z,40.00
2018-05-26T10:01:43.350Z,39.80
2018-05-26T10:04:16.998Z,39.70
2018-05-26T10:06:50.984Z,41.40
2018-05-26T10:09:24.651Z,40.50
2018-05-26T10:11:58.405Z,39.80
2018-05-26T10:14:32.133Z,41.30
2018-05-26T10:17:06.876Z,39.90
2018-05-26T10:19:40.763Z,39.90
2018-05-26T10:22:15.325Z,37.00
2018-05-26T10:24:49.197Z,36.90
2018-05-26T10:27:23.791Z,36.70
2018-05-26T10:29:57.559Z,36.10
2018-05-26T10:32:31.410Z,36.20
2018-05-26T10:35:05.122Z,35.70
2018-05-26T10:37:39.077Z,34.70
2018-05-26T10:40:14.283Z,34.70
2018-05-26T10:42:48.933Z,35.20
2018-05-26T10:45:34.653Z,35.10
2018-05-26T10:48:08.739Z,35.70
2018-05-26T10:50:42.602Z,35.60
2018-05-26T10:53:17.644Z,35.50
2018-05-26T10:55:51.594Z,35.40
2018-05-26T10:58:25.497Z,36.00
2018-05-26T11:01:00.806Z,35.70
2018-05-26T11:03:34.715Z,35.70
2018-05-26T11:06:08.535Z,34.70
2018-05-26T11:08:43.147Z,34.20
2018-05-26T11:11:18.046Z,35.20
2018-05-26T11:13:51.909Z,35.20
2018-05-26T11:16:25.692Z,35.00
2018-05-26T11:18:59.473Z,33.60
2018-05-26T11:21:33.221Z,34.10
2018-05-26T11:24:07.338Z,33.50
2018-05-26T11:26:40.910Z,33.60
2018-05-26T11:29:15.434Z,31.20
2018-05-26T11:31:49.194Z,31.20
2018-05-26T11:34:23.059Z,32.00
2018-05-26T11:36:57.500Z,31.00
2018-05-26T11:39:31.170Z,30.90
2018-05-26T11:42:04.866Z,31.60
2018-05-26T11:44:38.593Z,31.80
2018-05-26T11:47:12.400Z,31.30
2018-05-26T11:49:47.000Z,31.00
2018-05-26T11:52:20.942Z,30.90
2018-05-26T11:54:55.298Z,31.30
2018-05-26T11:57:29.122Z,31.20
2018-05-26T12:00:02.866Z,29.50
2018-05-26T12:02:36.637Z,30.40
2018-05-26T12:05:10.367Z,30.80
2018-05-26T12:07:44.921Z,30.10
2018-05-26T12:10:18.739Z,30.00
2018-05-26T12:12:52.592Z,29.80
2018-05-26T12:15:26.949Z,30.10
2018-05-26T12:18:00.688Z,31.50
2018-05-26T12:20:35.298Z,30.10
2018-05-26T12:23:08.960Z,30.10
2018-05-26T12:25:42.721Z,30.10
2018-05-26T12:28:17.863Z,29.70
2018-05-26T12:30:51.599Z,29.70
2018-05-26T12:33:25.247Z,29.90
2018-05-26T12:35:59.072Z,30.60
2018-05-26T12:38:33.664Z,28.40
2018-05-26T12:41:07.411Z,28.40
2018-05-26T12:43:41.099Z,29.30
2018-05-26T12:46:14.922Z,29.40
2018-05-26T12:48:49.436Z,29.30
2018-05-26T12:51:23.229Z,29.40
2018-05-26T12:53:57.835Z,27.90
2018-05-26T12:56:31.937Z,27.80
2018-05-26T12:59:05.576Z,29.00
2018-05-26T13:01:39.418Z,28.90
2018-05-26T13:04:13.220Z,29.40
2018-05-26T13:06:47.793Z,30.20
2018-05-26T13:09:21.634Z,30.20
2018-05-26T13:11:55.362Z,29.40
2018-05-26T13:14:29.112Z,30.00
2018-05-26T13:17:03.728Z,31.50
2018-05-26T13:19:37.522Z,31.40
2018-05-26T13:22:11.240Z,32.10
2018-05-26T13:24:44.873Z,31.80
2018-05-26T13:27:18.654Z,32.80
2018-05-26T13:29:53.224Z,33.00
2018-05-26T13:32:27.038Z,33.10
2018-05-26T13:35:01.446Z,34.10
2018-05-26T13:37:35.266Z,34.10
2018-05-26T13:40:08.951Z,34.80
2018-05-26T13:42:42.792Z,33.90
2018-05-26T13:45:16.599Z,32.60
2018-05-26T13:47:51.201Z,33.40
2018-05-26T13:50:25.631Z,34.40
2018-05-26T13:52:59.370Z,34.30
2018-05-26T13:55:33.990Z,34.80
2018-05-26T13:58:08.369Z,34.80
2018-05-26T14:00:42.767Z,34.30
2018-05-26T14:03:16.598Z,34.30
2018-05-26T14:05:50.385Z,34.80
2018-05-26T14:08:24.165Z,34.90
2018-05-26T14:10:58.075Z,34.10
2018-05-26T14:13:31.872Z,35.60
2018-05-26T14:16:05.734Z,36.20
2018-05-26T14:18:39.553Z,36.80
2018-05-26T14:21:14.239Z,36.60
2018-05-26T14:23:47.993Z,36.50
2018-05-26T14:26:21.675Z,37.00
2018-05-26T14:28:55.540Z,38.10
2018-05-26T14:31:29.369Z,38.40
2018-05-26T14:34:03.163Z,38.40
2018-05-26T14:36:37.706Z,37.50
2018-05-26T14:39:11.388Z,37.50
2018-05-26T14:41:45.214Z,38.00
2018-05-26T14:44:19.035Z,37.90
2018-05-26T14:46:53.605Z,38.80
2018-05-26T14:49:27.293Z,38.70
2018-05-26T14:52:01.145Z,38.40
2018-05-26T14:54:34.796Z,39.80
2018-05-26T14:57:08.631Z,39.20
2018-05-26T14:59:42.442Z,39.30
2018-05-26T15:02:16.263Z,40.10
2018-05-26T15:04:50.062Z,40.50
2018-05-26T15:07:24.015Z,40.30
2018-05-26T15:09:58.464Z,39.30
2018-05-26T15:12:32.203Z,39.30
2018-05-26T15:15:05.943Z,38.40
2018-05-26T15:17:39.707Z,38.80
2018-05-26T15:20:14.307Z,39.00
2018-05-26T15:22:48.007Z,39.00
2018-05-26T15:25:21.810Z,39.70
2018-05-26T15:27:55.621Z,38.90
2018-05-26T15:30:29.435Z,38.80
2018-05-26T15:33:03.261Z,38.80
2018-05-26T15:35:37.062Z,39.00
2018-05-26T15:38:11.554Z,39.50
2018-05-26T15:40:45.237Z,39.50
2018-05-26T15:43:19.772Z,40.20
2018-05-26T15:45:54.350Z,39.20
2018-05-26T15:48:28.092Z,39.20
2018-05-26T15:51:01.934Z,40.90
2018-05-26T15:53:35.834Z,41.20
2018-05-26T15:56:09.638Z,40.10
2018-05-26T15:58:43.459Z,41.30
2018-05-26T16:01:18.116Z,43.30
2018-05-26T16:03:51.835Z,43.20
2018-05-26T16:06:25.670Z,41.80
2018-05-26T16:09:00.184Z,41.20
2018-05-26T16:11:34.647Z,41.30
2018-05-26T16:14:08.337Z,41.30
2018-05-26T16:16:42.263Z,41.40
2018-05-26T16:19:16.811Z,42.00
2018-05-26T16:21:51.379Z,42.00
2018-05-26T16:24:25.200Z,41.90
2018-05-26T16:26:59.050Z,41.30
2018-05-26T16:29:32.988Z,42.10
2018-05-26T16:32:06.602Z,42.40
2018-05-26T16:34:40.443Z,42.90
2018-05-26T16:37:14.338Z,42.60
2018-05-26T16:39:48.661Z,41.70
2018-05-26T16:42:22.518Z,42.00
2018-05-26T16:44:56.302Z,42.00
2018-05-26T16:47:30.155Z,42.60
2018-05-26T16:50:03.978Z,43.60
2018-05-26T16:52:37.671Z,43.20
2018-05-26T16:55:11.475Z,43.00
2018-05-26T16:57:45.125Z,43.30
2018-05-26T17:00:18.926Z,43.90
2018-05-26T17:02:53.623Z,43.70
2018-05-26T17:05:27.455Z,43.70
2018-05-26T17:08:01.265Z,44.20
2018-05-26T17:10:35.116Z,43.40
2018-05-26T17:13:09.015Z,43.90
2018-05-26T17:15:42.807Z,44.10
2018-05-26T17:18:16.563Z,44.20
2018-05-26T17:20:50.378Z,44.80
2018-05-26T17:23:24.126Z,44.90
2018-05-26T17:25:58.739Z,45.00
2018-05-26T17:28:32.532Z,45.00
2018-05-26T17:31:06.352Z,45.10
2018-05-26T17:33:40.092Z,45.20
2018-05-26T17:36:13.827Z,44.70
2018-05-26T17:38:47.536Z,44.70
2018-05-26T17:41:21.395Z,44.60
2018-05-26T17:43:55.193Z,44.50
2018-05-26T17:46:29.029Z,44.50
2018-05-26T17:49:02.859Z,44.20
2018-05-26T17:51:36.669Z,44.60
2018-05-26T17:54:10.621Z,44.60
2018-05-26T17:56:44.350Z,44.10
2018-05-26T17:59:18.068Z,44.10
2018-05-26T18:01:51.893Z,44.10
2018-05-26T18:04:26.303Z,44.10
2018-05-26T18:07:00.002Z,44.10
2018-05-26T18:09:33.864Z,44.20
2018-05-26T18:12:07.697Z,44.30
2018-05-26T18:14:41.524Z,44.20
2018-05-26T18:17:15.318Z,44.70
2018-05-26T18:19:49.119Z,44.10
2018-05-26T18:22:22.961Z,44.20
2018-05-26T18:24:57.545Z,44.50
2018-05-26T18:27:31.282Z,44.40
2018-05-26T18:30:04.965Z,44.90
2018-05-26T18:32:39.561Z,45.50
2018-05-26T18:35:13.273Z,45.50
2018-05-26T18:37:47.084Z,45.60
2018-05-26T18:40:20.912Z,46.00
2018-05-26T18:42:54.694Z,45.80
2018-05-26T18:45:28.538Z,46.30
2018-05-26T18:48:03.176Z,46.10
2018-05-26T18:50:37.068Z,46.10
2018-05-26T18:53:10.778Z,46.10
2018-05-26T18:55:44.798Z,46.50
2018-05-26T18:58:18.545Z,46.70
2018-05-26T19:00:52.388Z,46.40
2018-05-26T19:03:26.349Z,47.00
2018-05-26T19:06:00.286Z,47.10
2018-05-26T19:08:34.180Z,47.00
2018-05-26T19:11:07.999Z,47.30
2018-05-26T19:13:41.859Z,47.50
2018-05-26T19:16:15.800Z,48.00
2018-05-26T19:18:49.594Z,48.50
2018-05-26T19:21:23.313Z,48.50
2018-05-26T19:23:57.279Z,48.50
2018-05-26T19:26:31.873Z,48.90
2018-05-26T19:29:06.347Z,49.40
2018-05-26T19:31:40.456Z,49.30
2018-05-26T19:34:14.350Z,49.60
2018-05-26T19:36:48.275Z,50.00
2018-05-26T19:39:22.800Z,50.60
2018-05-26T19:41:56.492Z,50.60
2018-05-26T19:44:30.403Z,50.60
2018-05-26T19:47:05.120Z,50.70
2018-05-26T19:49:40.252Z,51.20
2018-05-26T19:52:15.298Z,51.20
2018-05-26T19:54:48.934Z,51.40
2018-05-26T19:57:22.738Z,51.50
2018-05-26T19:59:57.355Z,51.70
2018-05-26T20:02:31.355Z,51.70
2018-05-26T20:05:05.173Z,51.80
2018-05-26T20:07:38.913Z,51.90
2018-05-26T20:10:12.645Z,51.80
2018-05-26T20:12:47.282Z,51.90
2018-05-26T20:15:21.619Z,51.90
2018-05-26T20:17:55.477Z,52.20
2018-05-26T20:20:29.592Z,52.20
2018-05-26T20:23:03.655Z,52.40
2018-05-26T20:25:37.413Z,52.30
2018-05-26T20:28:11.368Z,52.40
2018-05-26T20:30:45.252Z,52.20
2018-05-26T20:33:19.972Z,52.00
2018-05-26T20:35:53.804Z,52.00
2018-05-26T20:38:27.613Z,52.10
2018-05-26T20:41:03.010Z,52.10
2018-05-26T20:43:36.752Z,52.10
2018-05-26T20:46:10.599Z,51.90
2018-05-26T20:48:44.291Z,51.80
2018-05-26T20:51:18.169Z,51.80
2018-05-26T20:53:51.850Z,51.70
2018-05-26T20:56:26.532Z,52.10
2018-05-26T20:59:00.440Z,52.10
2018-05-26T21:01:34.915Z,52.50
2018-05-26T21:04:08.705Z,52.50
2018-05-26T21:06:42.499Z,52.60
2018-05-26T21:09:16.312Z,52.60
2018-05-26T21:11:50.981Z,52.70
2018-05-26T21:14:24.789Z,52.70
2018-05-26T21:16:58.508Z,52.80
2018-05-26T21:19:32.322Z,52.70
2018-05-26T21:22:05.992Z,52.60
2018-05-26T21:24:39.831Z,52.70
2018-05-26T21:27:13.573Z,52.60
2018-05-26T21:29:47.388Z,52.30
2018-05-26T21:32:21.186Z,52.00
2018-05-26T21:34:54.994Z,52.20
2018-05-26T21:37:28.830Z,52.30
2018-05-26T21:40:02.732Z,52.50
2018-05-26T21:42:37.363Z,52.50
2018-05-26T21:45:11.091Z,52.50
2018-05-26T21:47:44.838Z,52.00
2018-05-26T21:50:18.559Z,52.10
2018-05-26T21:52:52.386Z,52.00
2018-05-26T21:55:26.450Z,52.00
2018-05-26T21:58:00.382Z,52.20
2018-05-26T22:00:34.074Z,52.00
2018-05-26T22:03:07.972Z,52.00
2018-05-26T22:05:41.762Z,52.30
2018-05-26T22:08:15.424Z,52.70
2018-05-26T22:10:49.208Z,52.90
2018-05-26T22:13:23.121Z,52.70
2018-05-26T22:15:57.733Z,52.60
2018-05-26T22:18:31.446Z,52.60
2018-05-26T22:21:05.582Z,52.70
2018-05-26T22:23:39.452Z,52.60
2018-05-26T22:26:13.439Z,52.70
2018-05-26T22:28:48.236Z,52.30
2018-05-26T22:31:22.020Z,52.50
2018-05-26T22:33:56.593Z,52.30
2018-05-26T22:36:30.230Z,52.30
2018-05-26T22:39:04.617Z,52.40
2018-05-26T22:41:38.519Z,52.40
2018-05-26T22:44:12.289Z,52.40
2018-05-26T22:46:46.117Z,52.30
2018-05-26T22:49:19.821Z,52.00
2018-05-26T22:51:54.522Z,52.60
2018-05-26T22:54:28.377Z,52.50
2018-05-26T22:57:02.333Z,52.60
2018-05-26T22:59:36.182Z,52.40
2018-05-26T23:02:10.123Z,52.50
2018-05-26T23:04:43.870Z,52.70
2018-05-26T23:07:18.467Z,52.70
2018-05-26T23:09:52.467Z,52.60
2018-05-26T23:12:26.475Z,53.00
2018-05-26T23:15:00.497Z,53.50
2018-05-26T23:17:34.451Z,53.30
2018-05-26T23:20:09.224Z,53.60
2018-05-26T23:22:43.121Z,53.60
2018-05-26T23:25:17.164Z,54.00
2018-05-26T23:27:51.199Z,53.70
2018-05-26T23:30:25.880Z,54.30
2018-05-26T23:32:59.679Z,54.30
2018-05-26T23:35:33.621Z,54.50
2018-05-26T23:38:07.349Z,54.30
2018-05-26T23:40:41.401Z,54.60
2018-05-26T23:43:16.089Z,55.20
2018-05-26T23:45:50.341Z,54.60
2018-05-26T23:48:24.362Z,54.90
2018-05-26T23:50:58.430Z,55.30
2018-05-26T23:53:32.237Z,55.20
2018-05-26T23:56:06.199Z,55.00
2018-05-26T23:58:40.088Z,55.20
